sensor_id;sensor_type;location;lat;lon;timestamp;pressure;altitude;pressure_sealevel;temperature;humidity
62124;BME280;48110;47.532;19.078;2022-11-13T00:03:23;102091.66;;;5.77;100.00
62124;BME280;48110;47.532;19.078;2022-11-13T00:06:48;102080.56;;;5.72;100.00
62124;BME280;48110;47.532;19.078;2022-11-13T00:10:18;102087.09;;;5.66;100.00
62124;BME280;48110;47.532;19.078;2022-11-13T00:13:42;102084.44;;;5.66;100.00
62124;BME280;48110;47.532;19.078;2022-11-13T00:17:06;102082.91;;;5.62;100.00
62124;BME280;48110;47.532;19.078;2022-11-13T00:20:31;102076.06;;;5.59;100.00
62124;BME280;48110;47.532;19.078;2022-11-13T00:23:56;102086.31;;;5.64;100.00
62124;BME280;48110;47.532;19.078;2022-11-13T00:27:21;102082.91;;;5.76;100.00
62124;BME280;48110;47.532;19.078;2022-11-13T00:30:46;102084.53;;;5.64;100.00
62124;BME280;48110;47.532;19.078;2022-11-13T00:34:13;102083.66;;;5.78;100.00
62124;BME280;48110;47.532;19.078;2022-11-13T00:37:56;102086.12;;;5.67;100.00
62124;BME280;48110;47.532;19.078;2022-11-13T00:41:22;102088.88;;;5.65;100.00
62124;BME280;48110;47.532;19.078;2022-11-13T00:44:48;102086.31;;;5.78;100.00
62124;BME280;48110;47.532;19.078;2022-11-13T00:48:12;102081.59;;;5.97;100.00
62124;BME280;48110;47.532;19.078;2022-11-13T00:51:37;102082.66;;;5.95;100.00
62124;BME280;48110;47.532;19.078;2022-11-13T00:55:04;102083.56;;;6.08;100.00
62124;BME280;48110;47.532;19.078;2022-11-13T00:58:28;102077.75;;;6.03;100.00
62124;BME280;48110;47.532;19.078;2022-11-13T01:01:54;102080.28;;;6.04;100.00
62124;BME280;48110;47.532;19.078;2022-11-13T01:05:18;102077.91;;;6.14;100.00
62124;BME280;48110;47.532;19.078;2022-11-13T01:08:45;102075.75;;;6.06;100.00
62124;BME280;48110;47.532;19.078;2022-11-13T01:12:08;102081.94;;;6.20;100.00
62124;BME280;48110;47.532;19.078;2022-11-13T01:15:31;102075.38;;;6.12;100.00
62124;BME280;48110;47.532;19.078;2022-11-13T01:18:55;102079.19;;;6.21;100.00
62124;BME280;48110;47.532;19.078;2022-11-13T01:22:21;102074.78;;;6.22;100.00
62124;BME280;48110;47.532;19.078;2022-11-13T01:25:44;102081.19;;;6.18;100.00
62124;BME280;48110;47.532;19.078;2022-11-13T01:29:08;102071.59;;;6.17;100.00
62124;BME280;48110;47.532;19.078;2022-11-13T01:32:35;102065.94;;;6.23;100.00
62124;BME280;48110;47.532;19.078;2022-11-13T01:36:00;102064.59;;;6.30;100.00
62124;BME280;48110;47.532;19.078;2022-11-13T01:39:24;102061.94;;;6.30;100.00
62124;BME280;48110;47.532;19.078;2022-11-13T01:42:49;102046.34;;;6.27;100.00
62124;BME280;48110;47.532;19.078;2022-11-13T01:50:00;102049.91;;;6.26;100.00
62124;BME280;48110;47.532;19.078;2022-11-13T01:53:24;102049.66;;;6.16;100.00
62124;BME280;48110;47.532;19.078;2022-11-13T01:56:47;102039.87;;;6.18;100.00
62124;BME280;48110;47.532;19.078;2022-11-13T02:00:14;102043.53;;;6.16;100.00
62124;BME280;48110;47.532;19.078;2022-11-13T02:03:39;102039.38;;;6.26;100.00
62124;BME280;48110;47.532;19.078;2022-11-13T02:07:12;102034.31;;;6.23;100.00
62124;BME280;48110;47.532;19.078;2022-11-13T02:10:36;102027.66;;;6.17;100.00
62124;BME280;48110;47.532;19.078;2022-11-13T02:14:02;102033.72;;;6.05;100.00
62124;BME280;48110;47.532;19.078;2022-11-13T02:17:36;102031.81;;;6.07;100.00
62124;BME280;48110;47.532;19.078;2022-11-13T02:24:46;102024.03;;;5.91;100.00
62124;BME280;48110;47.532;19.078;2022-11-13T02:28:16;102031.31;;;5.88;100.00
62124;BME280;48110;47.532;19.078;2022-11-13T02:31:39;102021.41;;;5.91;100.00
62124;BME280;48110;47.532;19.078;2022-11-13T02:35:04;102020.94;;;5.85;100.00
62124;BME280;48110;47.532;19.078;2022-11-13T02:38:28;102028.16;;;5.81;100.00
62124;BME280;48110;47.532;19.078;2022-11-13T02:41:52;102025.19;;;5.87;100.00
62124;BME280;48110;47.532;19.078;2022-11-13T02:45:16;102023.09;;;5.92;100.00
62124;BME280;48110;47.532;19.078;2022-11-13T02:48:40;102018.38;;;5.83;100.00
62124;BME280;48110;47.532;19.078;2022-11-13T02:52:05;102020.75;;;5.74;100.00
62124;BME280;48110;47.532;19.078;2022-11-13T02:55:31;102011.16;;;5.73;100.00
62124;BME280;48110;47.532;19.078;2022-11-13T02:58:55;102007.38;;;5.77;100.00
62124;BME280;48110;47.532;19.078;2022-11-13T03:02:23;102018.03;;;5.89;100.00
62124;BME280;48110;47.532;19.078;2022-11-13T03:05:49;102024.72;;;5.81;100.00
62124;BME280;48110;47.532;19.078;2022-11-13T03:09:13;102018.38;;;5.83;100.00
62124;BME280;48110;47.532;19.078;2022-11-13T03:12:40;102013.03;;;5.85;100.00
62124;BME280;48110;47.532;19.078;2022-11-13T03:16:04;102014.34;;;5.78;100.00
62124;BME280;48110;47.532;19.078;2022-11-13T03:19:28;102002.13;;;5.77;100.00
62124;BME280;48110;47.532;19.078;2022-11-13T03:22:53;102007.50;;;5.75;100.00
62124;BME280;48110;47.532;19.078;2022-11-13T03:26:16;102013.44;;;5.64;100.00
62124;BME280;48110;47.532;19.078;2022-11-13T03:29:42;102018.22;;;5.72;100.00
62124;BME280;48110;47.532;19.078;2022-11-13T03:33:07;102019.28;;;5.69;100.00
62124;BME280;48110;47.532;19.078;2022-11-13T03:36:30;102021.66;;;5.46;100.00
62124;BME280;48110;47.532;19.078;2022-11-13T03:39:55;102023.50;;;5.44;100.00
62124;BME280;48110;47.532;19.078;2022-11-13T03:43:18;102017.81;;;5.37;100.00
62124;BME280;48110;47.532;19.078;2022-11-13T03:46:43;102009.78;;;5.39;100.00
62124;BME280;48110;47.532;19.078;2022-11-13T03:50:06;102013.06;;;5.28;100.00
62124;BME280;48110;47.532;19.078;2022-11-13T03:53:28;102013.47;;;5.36;100.00
62124;BME280;48110;47.532;19.078;2022-11-13T03:56:52;102016.97;;;5.22;100.00
62124;BME280;48110;47.532;19.078;2022-11-13T04:00:15;102022.22;;;5.22;100.00
62124;BME280;48110;47.532;19.078;2022-11-13T04:03:42;102014.13;;;5.25;100.00
62124;BME280;48110;47.532;19.078;2022-11-13T04:07:06;102011.41;;;5.27;100.00
62124;BME280;48110;47.532;19.078;2022-11-13T04:10:32;102007.66;;;5.17;100.00
62124;BME280;48110;47.532;19.078;2022-11-13T04:13:56;102023.16;;;5.21;100.00
62124;BME280;48110;47.532;19.078;2022-11-13T04:17:20;102022.59;;;5.16;100.00
62124;BME280;48110;47.532;19.078;2022-11-13T04:20:45;102009.06;;;5.22;100.00
62124;BME280;48110;47.532;19.078;2022-11-13T04:24:08;102019.94;;;5.16;100.00
62124;BME280;48110;47.532;19.078;2022-11-13T04:27:34;102015.69;;;5.14;100.00
62124;BME280;48110;47.532;19.078;2022-11-13T04:31:01;102018.34;;;5.14;100.00
62124;BME280;48110;47.532;19.078;2022-11-13T04:34:27;102019.19;;;5.14;100.00
62124;BME280;48110;47.532;19.078;2022-11-13T04:37:51;102020.97;;;5.14;100.00
62124;BME280;48110;47.532;19.078;2022-11-13T04:41:15;102012.63;;;5.21;100.00
62124;BME280;48110;47.532;19.078;2022-11-13T04:44:59;102013.66;;;5.19;100.00
62124;BME280;48110;47.532;19.078;2022-11-13T04:48:23;102013.84;;;5.02;100.00
62124;BME280;48110;47.532;19.078;2022-11-13T04:51:48;102006.22;;;4.97;100.00
62124;BME280;48110;47.532;19.078;2022-11-13T04:55:14;102006.41;;;5.08;100.00
62124;BME280;48110;47.532;19.078;2022-11-13T04:58:41;102010.44;;;5.00;100.00
62124;BME280;48110;47.532;19.078;2022-11-13T05:02:06;102017.69;;;5.10;100.00
62124;BME280;48110;47.532;19.078;2022-11-13T05:05:31;102017.31;;;5.16;100.00
62124;BME280;48110;47.532;19.078;2022-11-13T05:08:56;102007.94;;;5.12;100.00
62124;BME280;48110;47.532;19.078;2022-11-13T05:12:21;102019.09;;;5.16;100.00
62124;BME280;48110;47.532;19.078;2022-11-13T05:15:49;102021.25;;;5.09;100.00
62124;BME280;48110;47.532;19.078;2022-11-13T05:19:15;102024.84;;;5.22;100.00
62124;BME280;48110;47.532;19.078;2022-11-13T05:22:39;102011.50;;;5.11;100.00
62124;BME280;48110;47.532;19.078;2022-11-13T05:26:05;102024.91;;;5.07;100.00
62124;BME280;48110;47.532;19.078;2022-11-13T05:29:30;102022.59;;;5.16;100.00
62124;BME280;48110;47.532;19.078;2022-11-13T05:32:54;102016.75;;;5.11;100.00
62124;BME280;48110;47.532;19.078;2022-11-13T05:36:21;102012.50;;;5.09;100.00
62124;BME280;48110;47.532;19.078;2022-11-13T05:39:45;102011.97;;;5.18;100.00
62124;BME280;48110;47.532;19.078;2022-11-13T05:43:10;102009.87;;;5.09;100.00
62124;BME280;48110;47.532;19.078;2022-11-13T05:46:33;102014.09;;;4.97;100.00
62124;BME280;48110;47.532;19.078;2022-11-13T05:49:57;102011.47;;;4.97;100.00
62124;BME280;48110;47.532;19.078;2022-11-13T05:53:21;101997.97;;;5.03;100.00
62124;BME280;48110;47.532;19.078;2022-11-13T05:56:45;102011.84;;;5.05;100.00
62124;BME280;48110;47.532;19.078;2022-11-13T06:00:09;102008.50;;;5.03;100.00
62124;BME280;48110;47.532;19.078;2022-11-13T06:03:35;102005.59;;;5.08;100.00
62124;BME280;48110;47.532;19.078;2022-11-13T06:06:58;102001.06;;;5.10;100.00
62124;BME280;48110;47.532;19.078;2022-11-13T06:10:23;102000.69;;;5.16;100.00
62124;BME280;48110;47.532;19.078;2022-11-13T06:13:46;102009.44;;;5.16;100.00
62124;BME280;48110;47.532;19.078;2022-11-13T06:17:10;102006.22;;;5.11;100.00
62124;BME280;48110;47.532;19.078;2022-11-13T06:20:35;102001.81;;;4.98;100.00
62124;BME280;48110;47.532;19.078;2022-11-13T06:23:57;102006.97;;;5.13;100.00
62124;BME280;48110;47.532;19.078;2022-11-13T06:27:22;102011.50;;;5.11;100.00
62124;BME280;48110;47.532;19.078;2022-11-13T06:30:48;102011.00;;;5.19;100.00
62124;BME280;48110;47.532;19.078;2022-11-13T06:34:15;102004.38;;;5.28;100.00
62124;BME280;48110;47.532;19.078;2022-11-13T06:37:40;102007.72;;;5.15;100.00
62124;BME280;48110;47.532;19.078;2022-11-13T06:41:04;102011.50;;;5.11;100.00
62124;BME280;48110;47.532;19.078;2022-11-13T06:44:30;102006.31;;;5.24;100.00
62124;BME280;48110;47.532;19.078;2022-11-13T06:47:53;102014.03;;;5.41;100.00
62124;BME280;48110;47.532;19.078;2022-11-13T06:51:17;102013.56;;;5.35;100.00
62124;BME280;48110;47.532;19.078;2022-11-13T06:54:43;102014.91;;;5.28;100.00
62124;BME280;48110;47.532;19.078;2022-11-13T06:58:05;102021.25;;;5.23;100.00
62124;BME280;48110;47.532;19.078;2022-11-13T07:01:30;102023.59;;;5.42;100.00
62124;BME280;48110;47.532;19.078;2022-11-13T07:04:55;102025.97;;;5.47;100.00
62124;BME280;48110;47.532;19.078;2022-11-13T07:08:20;102027.66;;;5.48;100.00
62124;BME280;48110;47.532;19.078;2022-11-13T07:11:45;102020.78;;;5.59;100.00
62124;BME280;48110;47.532;19.078;2022-11-13T07:15:08;102032.25;;;5.58;100.00
62124;BME280;48110;47.532;19.078;2022-11-13T07:18:35;102030.09;;;5.65;100.00
62124;BME280;48110;47.532;19.078;2022-11-13T07:22:00;102029.16;;;5.66;100.00
62124;BME280;48110;47.532;19.078;2022-11-13T07:25:24;102034.41;;;5.66;100.00
62124;BME280;48110;47.532;19.078;2022-11-13T07:28:47;102028.75;;;5.72;100.00
62124;BME280;48110;47.532;19.078;2022-11-13T07:32:11;102039.78;;;5.64;100.00
62124;BME280;48110;47.532;19.078;2022-11-13T07:35:36;102031.03;;;5.64;100.00
62124;BME280;48110;47.532;19.078;2022-11-13T07:39:00;102020.22;;;5.54;100.00
62124;BME280;48110;47.532;19.078;2022-11-13T07:42:24;102021.56;;;5.61;100.00
62124;BME280;48110;47.532;19.078;2022-11-13T07:45:49;102033.09;;;5.59;100.00
62124;BME280;48110;47.532;19.078;2022-11-13T07:49:17;102053.22;;;5.60;100.00
62124;BME280;48110;47.532;19.078;2022-11-13T07:52:40;102038.81;;;5.80;100.00
62124;BME280;48110;47.532;19.078;2022-11-13T07:56:04;102045.97;;;5.92;100.00
62124;BME280;48110;47.532;19.078;2022-11-13T07:59:27;102032.31;;;5.85;100.00
62124;BME280;48110;47.532;19.078;2022-11-13T08:02:53;102029.69;;;5.99;100.00
62124;BME280;48110;47.532;19.078;2022-11-13T08:06:17;102042.38;;;5.93;100.00
62124;BME280;48110;47.532;19.078;2022-11-13T08:09:43;102037.75;;;5.82;100.00
62124;BME280;48110;47.532;19.078;2022-11-13T08:13:08;102042.91;;;6.12;100.00
62124;BME280;48110;47.532;19.078;2022-11-13T08:16:31;102038.47;;;6.12;100.00
62124;BME280;48110;47.532;19.078;2022-11-13T08:19:56;102038.03;;;6.06;100.00
62124;BME280;48110;47.532;19.078;2022-11-13T08:23:20;102035.62;;;6.16;100.00
62124;BME280;48110;47.532;19.078;2022-11-13T08:26:44;102039.87;;;6.18;100.00
62124;BME280;48110;47.532;19.078;2022-11-13T08:30:08;102030.37;;;6.16;100.00
62124;BME280;48110;47.532;19.078;2022-11-13T08:33:32;102028.03;;;6.11;100.00
62124;BME280;48110;47.532;19.078;2022-11-13T08:36:55;102029.00;;;6.37;100.00
62124;BME280;48110;47.532;19.078;2022-11-13T08:40:19;102035.09;;;6.37;100.00
62124;BME280;48110;47.532;19.078;2022-11-13T08:43:44;102034.75;;;6.02;100.00
62124;BME280;48110;47.532;19.078;2022-11-13T08:47:07;102033.25;;;5.84;100.00
62124;BME280;48110;47.532;19.078;2022-11-13T08:50:31;102023.25;;;6.30;100.00
62124;BME280;48110;47.532;19.078;2022-11-13T08:53:55;102028.03;;;6.38;100.00
62124;BME280;48110;47.532;19.078;2022-11-13T08:57:19;102032.53;;;6.63;100.00
62124;BME280;48110;47.532;19.078;2022-11-13T09:00:44;102032.16;;;6.94;100.00
62124;BME280;48110;47.532;19.078;2022-11-13T09:04:11;102031.66;;;7.02;100.00
62124;BME280;48110;47.532;19.078;2022-11-13T09:07:36;102028.34;;;6.98;100.00
62124;BME280;48110;47.532;19.078;2022-11-13T09:11:03;102031.13;;;6.96;100.00
62124;BME280;48110;47.532;19.078;2022-11-13T09:14:27;102033.09;;;6.80;100.00
62124;BME280;48110;47.532;19.078;2022-11-13T09:17:54;102024.72;;;6.61;100.00
62124;BME280;48110;47.532;19.078;2022-11-13T09:21:19;102027.19;;;6.89;100.00
62124;BME280;48110;47.532;19.078;2022-11-13T09:24:43;102033.63;;;6.85;100.00
62124;BME280;48110;47.532;19.078;2022-11-13T09:28:09;102031.13;;;6.96;100.00
62124;BME280;48110;47.532;19.078;2022-11-13T09:31:34;102033.56;;;7.25;100.00
62124;BME280;48110;47.532;19.078;2022-11-13T09:34:59;102026.78;;;7.08;100.00
62124;BME280;48110;47.532;19.078;2022-11-13T09:38:23;102018.47;;;7.14;100.00
62124;BME280;48110;47.532;19.078;2022-11-13T09:42:10;102012.34;;;7.01;100.00
62124;BME280;48110;47.532;19.078;2022-11-13T09:45:35;102010.75;;;6.98;100.00
62124;BME280;48110;47.532;19.078;2022-11-13T09:49:05;102004.88;;;7.57;100.00
62124;BME280;48110;47.532;19.078;2022-11-13T09:52:35;102005.78;;;8.05;100.00
62124;BME280;48110;47.532;19.078;2022-11-13T09:56:14;102004.69;;;8.20;100.00
62124;BME280;48110;47.532;19.078;2022-11-13T09:59:50;102001.09;;;8.21;100.00
62124;BME280;48110;47.532;19.078;2022-11-13T10:07:24;101997.84;;;7.81;100.00
62124;BME280;48110;47.532;19.078;2022-11-13T10:24:39;101965.50;;;9.06;100.00
62124;BME280;48110;47.532;19.078;2022-11-13T10:28:22;101956.03;;;9.14;100.00
62124;BME280;48110;47.532;19.078;2022-11-13T10:32:14;101951.16;;;8.86;100.00
62124;BME280;48110;47.532;19.078;2022-11-13T10:39:05;101937.34;;;9.27;100.00
62124;BME280;48110;47.532;19.078;2022-11-13T10:42:34;101934.47;;;9.08;100.00
62124;BME280;48110;47.532;19.078;2022-11-13T10:46:00;101927.75;;;9.04;100.00
62124;BME280;48110;47.532;19.078;2022-11-13T10:49:25;101924.34;;;8.80;100.00
62124;BME280;48110;47.532;19.078;2022-11-13T10:52:53;101922.56;;;8.10;100.00
62124;BME280;48110;47.532;19.078;2022-11-13T10:59:45;101913.88;;;7.97;100.00
62124;BME280;48110;47.532;19.078;2022-11-13T11:03:12;101908.97;;;8.04;100.00
62124;BME280;48110;47.532;19.078;2022-11-13T11:06:37;101906.31;;;8.27;100.00
62124;BME280;48110;47.532;19.078;2022-11-13T11:13:46;101910.22;;;8.46;100.00
62124;BME280;48110;47.532;19.078;2022-11-13T11:17:12;101901.97;;;9.06;100.00
62124;BME280;48110;47.532;19.078;2022-11-13T11:24:17;101900.38;;;10.43;100.00
62124;BME280;48110;47.532;19.078;2022-11-13T11:27:47;101894.56;;;10.50;100.00
62124;BME280;48110;47.532;19.078;2022-11-13T11:31:38;101887.50;;;10.39;100.00
62124;BME280;48110;47.532;19.078;2022-11-13T11:35:06;101881.84;;;10.53;100.00
62124;BME280;48110;47.532;19.078;2022-11-13T11:45:42;101871.31;;;10.93;100.00
62124;BME280;48110;47.532;19.078;2022-11-13T11:49:07;101867.97;;;11.60;100.00
62124;BME280;48110;47.532;19.078;2022-11-13T11:52:33;101866.63;;;12.13;100.00
62124;BME280;48110;47.532;19.078;2022-11-13T11:59:47;101856.38;;;11.51;100.00
62124;BME280;48110;47.532;19.078;2022-11-13T12:06:41;101846.78;;;10.80;100.00
62124;BME280;48110;47.532;19.078;2022-11-13T12:13:36;101848.59;;;10.49;100.00
62124;BME280;48110;47.532;19.078;2022-11-13T12:17:12;101837.81;;;10.20;100.00
62124;BME280;48110;47.532;19.078;2022-11-13T12:24:17;101820.56;;;9.94;100.00
62124;BME280;48110;47.532;19.078;2022-11-13T12:28:05;101819.69;;;9.52;100.00
62124;BME280;48110;47.532;19.078;2022-11-13T12:31:43;101813.78;;;9.48;100.00
62124;BME280;48110;47.532;19.078;2022-11-13T12:35:12;101809.28;;;9.60;100.00
62124;BME280;48110;47.532;19.078;2022-11-13T12:42:08;101800.63;;;9.58;100.00
62124;BME280;48110;47.532;19.078;2022-11-13T12:48:57;101787.47;;;9.68;100.00
62124;BME280;48110;47.532;19.078;2022-11-13T12:52:22;101772.06;;;9.62;100.00
62124;BME280;48110;47.532;19.078;2022-11-13T12:55:53;101778.34;;;9.81;100.00
62124;BME280;48110;47.532;19.078;2022-11-13T13:13:51;101756.19;;;10.24;100.00
62124;BME280;48110;47.532;19.078;2022-11-13T13:17:20;101749.94;;;10.14;100.00
62124;BME280;48110;47.532;19.078;2022-11-13T13:21:06;101752.03;;;10.31;100.00
62124;BME280;48110;47.532;19.078;2022-11-13T13:27:55;101750.34;;;10.09;100.00
62124;BME280;48110;47.532;19.078;2022-11-13T13:38:28;101744.75;;;9.82;100.00
62124;BME280;48110;47.532;19.078;2022-11-13T13:49:27;101745.63;;;9.50;100.00
62124;BME280;48110;47.532;19.078;2022-11-13T13:52:52;101751.87;;;9.49;100.00
62124;BME280;48110;47.532;19.078;2022-11-13T13:56:18;101745.97;;;9.57;100.00
62124;BME280;48110;47.532;19.078;2022-11-13T13:59:43;101739.09;;;9.54;100.00
62124;BME280;48110;47.532;19.078;2022-11-13T14:03:18;101739.56;;;9.39;100.00
62124;BME280;48110;47.532;19.078;2022-11-13T14:06:46;101729.69;;;9.30;100.00
62124;BME280;48110;47.532;19.078;2022-11-13T14:10:19;101721.16;;;9.26;100.00
62124;BME280;48110;47.532;19.078;2022-11-13T14:13:44;101726.50;;;9.15;100.00
62124;BME280;48110;47.532;19.078;2022-11-13T14:17:08;101726.62;;;9.13;100.00
62124;BME280;48110;47.532;19.078;2022-11-13T14:20:46;101712.00;;;8.98;100.00
62124;BME280;48110;47.532;19.078;2022-11-13T14:24:19;101725.25;;;8.98;100.00
62124;BME280;48110;47.532;19.078;2022-11-13T14:27:43;101724.87;;;8.92;100.00
62124;BME280;48110;47.532;19.078;2022-11-13T14:31:08;101711.44;;;8.84;100.00
62124;BME280;48110;47.532;19.078;2022-11-13T14:34:33;101716.16;;;8.80;100.00
62124;BME280;48110;47.532;19.078;2022-11-13T14:37:58;101717.38;;;8.65;100.00
62124;BME280;48110;47.532;19.078;2022-11-13T14:41:32;101713.41;;;8.48;100.00
62124;BME280;48110;47.532;19.078;2022-11-13T14:45:13;101714.25;;;8.38;100.00
62124;BME280;48110;47.532;19.078;2022-11-13T14:48:37;101709.47;;;8.32;100.00
62124;BME280;48110;47.532;19.078;2022-11-13T14:52:01;101708.72;;;8.18;100.00
62124;BME280;48110;47.532;19.078;2022-11-13T14:55:25;101715.34;;;8.13;100.00
62124;BME280;48110;47.532;19.078;2022-11-13T14:58:49;101709.66;;;7.95;100.00
62124;BME280;48110;47.532;19.078;2022-11-13T15:02:15;101711.31;;;7.85;100.00
62124;BME280;48110;47.532;19.078;2022-11-13T15:05:38;101702.31;;;7.76;100.00
62124;BME280;48110;47.532;19.078;2022-11-13T15:09:01;101700.38;;;7.67;100.00
62124;BME280;48110;47.532;19.078;2022-11-13T15:12:24;101702.88;;;7.58;100.00
62124;BME280;48110;47.532;19.078;2022-11-13T15:15:47;101708.00;;;7.48;100.00
62124;BME280;48110;47.532;19.078;2022-11-13T15:19:15;101707.13;;;7.36;100.00
62124;BME280;48110;47.532;19.078;2022-11-13T15:22:39;101706.12;;;7.26;100.00
62124;BME280;48110;47.532;19.078;2022-11-13T15:26:05;101693.25;;;7.22;100.00
62124;BME280;48110;47.532;19.078;2022-11-13T15:29:27;101697.09;;;7.18;100.00
62124;BME280;48110;47.532;19.078;2022-11-13T15:32:51;101691.09;;;7.16;100.00
62124;BME280;48110;47.532;19.078;2022-11-13T15:36:16;101690.38;;;7.14;100.00
62124;BME280;48110;47.532;19.078;2022-11-13T15:39:38;101692.50;;;7.09;100.00
62124;BME280;48110;47.532;19.078;2022-11-13T15:43:02;101688.84;;;6.98;100.00
62124;BME280;48110;47.532;19.078;2022-11-13T15:46:24;101692.78;;;6.93;100.00
62124;BME280;48110;47.532;19.078;2022-11-13T15:49:49;101701.16;;;6.87;100.00
62124;BME280;48110;47.532;19.078;2022-11-13T15:53:33;101695.25;;;6.83;100.00
62124;BME280;48110;47.532;19.078;2022-11-13T15:56:58;101702.66;;;6.78;100.00
62124;BME280;48110;47.532;19.078;2022-11-13T16:00:24;101701.69;;;6.79;100.00
62124;BME280;48110;47.532;19.078;2022-11-13T16:03:48;101703.72;;;6.76;100.00
62124;BME280;48110;47.532;19.078;2022-11-13T16:07:17;101701.44;;;6.71;100.00
62124;BME280;48110;47.532;19.078;2022-11-13T16:10:42;101699.84;;;6.69;100.00
62124;BME280;48110;47.532;19.078;2022-11-13T16:14:06;101710.34;;;6.81;100.00
62124;BME280;48110;47.532;19.078;2022-11-13T16:17:29;101708.25;;;6.74;100.00
62124;BME280;48110;47.532;19.078;2022-11-13T16:20:56;101710.63;;;6.66;100.00
62124;BME280;48110;47.532;19.078;2022-11-13T16:24:18;101699.56;;;6.61;100.00
62124;BME280;48110;47.532;19.078;2022-11-13T16:27:44;101696.16;;;6.59;100.00
62124;BME280;48110;47.532;19.078;2022-11-13T16:31:07;101689.66;;;6.51;100.00
62124;BME280;48110;47.532;19.078;2022-11-13T16:34:32;101688.41;;;6.44;100.00
62124;BME280;48110;47.532;19.078;2022-11-13T16:37:54;101692.66;;;6.71;100.00
62124;BME280;48110;47.532;19.078;2022-11-13T16:41:17;101682.19;;;6.58;100.00
62124;BME280;48110;47.532;19.078;2022-11-13T16:44:38;101684.28;;;6.53;100.00
62124;BME280;48110;47.532;19.078;2022-11-13T16:48:01;101686.28;;;6.49;100.00
62124;BME280;48110;47.532;19.078;2022-11-13T16:51:25;101695.09;;;6.37;100.00
62124;BME280;48110;47.532;19.078;2022-11-13T16:54:48;101690.34;;;6.30;100.00
62124;BME280;48110;47.532;19.078;2022-11-13T16:58:12;101687.50;;;6.20;100.00
62124;BME280;48110;47.532;19.078;2022-11-13T17:01:37;101687.31;;;6.23;100.00
62124;BME280;48110;47.532;19.078;2022-11-13T17:04:59;101686.28;;;6.13;100.00
62124;BME280;48110;47.532;19.078;2022-11-13T17:08:23;101694.28;;;6.11;100.00
62124;BME280;48110;47.532;19.078;2022-11-13T17:11:46;101690.41;;;6.04;100.00
62124;BME280;48110;47.532;19.078;2022-11-13T17:15:07;101698.81;;;5.97;100.00
62124;BME280;48110;47.532;19.078;2022-11-13T17:18:29;101684.78;;;5.84;100.00
62124;BME280;48110;47.532;19.078;2022-11-13T17:21:50;101697.31;;;5.80;100.00
62124;BME280;48110;47.532;19.078;2022-11-13T17:25:14;101684.78;;;5.84;100.00
62124;BME280;48110;47.532;19.078;2022-11-13T17:28:39;101692.91;;;5.81;100.00
62124;BME280;48110;47.532;19.078;2022-11-13T17:32:03;101688.03;;;5.75;100.00
62124;BME280;48110;47.532;19.078;2022-11-13T17:35:26;101685.81;;;5.68;100.00
62124;BME280;48110;47.532;19.078;2022-11-13T17:38:47;101681.50;;;5.67;100.00
62124;BME280;48110;47.532;19.078;2022-11-13T17:42:12;101688.03;;;5.75;100.00
62124;BME280;48110;47.532;19.078;2022-11-13T17:45:36;101677.09;;;5.81;100.00
62124;BME280;48110;47.532;19.078;2022-11-13T17:49:01;101670.69;;;5.97;100.00
62124;BME280;48110;47.532;19.078;2022-11-13T17:52:26;101672.16;;;6.01;100.00
62124;BME280;48110;47.532;19.078;2022-11-13T17:55:55;101676.91;;;5.96;100.00
62124;BME280;48110;47.532;19.078;2022-11-13T17:59:21;101680.16;;;6.12;100.00
62124;BME280;48110;47.532;19.078;2022-11-13T18:02:46;101671.31;;;5.88;100.00
62124;BME280;48110;47.532;19.078;2022-11-13T18:06:09;101671.63;;;5.84;100.00
62124;BME280;48110;47.532;19.078;2022-11-13T18:09:33;101675.41;;;5.80;100.00
62124;BME280;48110;47.532;19.078;2022-11-13T18:12:55;101673.50;;;5.82;100.00
62124;BME280;48110;47.532;19.078;2022-11-13T18:16:22;101685.94;;;5.80;100.00
62124;BME280;48110;47.532;19.078;2022-11-13T18:19:46;101669.69;;;5.86;100.00
62124;BME280;48110;47.532;19.078;2022-11-13T18:23:10;101672.66;;;5.68;100.00
62124;BME280;48110;47.532;19.078;2022-11-13T18:26:34;101679.50;;;5.58;100.00
62124;BME280;48110;47.532;19.078;2022-11-13T18:29:58;101683.06;;;5.57;100.00
62124;BME280;48110;47.532;19.078;2022-11-13T18:33:21;101678.13;;;5.53;100.00
62124;BME280;48110;47.532;19.078;2022-11-13T18:36:46;101687.16;;;5.49;100.00
62124;BME280;48110;47.532;19.078;2022-11-13T18:40:12;101692.53;;;5.47;100.00
62124;BME280;48110;47.532;19.078;2022-11-13T18:43:37;101692.72;;;5.32;100.00
62124;BME280;48110;47.532;19.078;2022-11-13T18:47:01;101697.75;;;5.22;100.00
62124;BME280;48110;47.532;19.078;2022-11-13T18:50:24;101696.47;;;5.15;100.00
62124;BME280;48110;47.532;19.078;2022-11-13T18:53:47;101698.47;;;5.11;100.00
62124;BME280;48110;47.532;19.078;2022-11-13T18:57:10;101701.56;;;5.04;100.00
62124;BME280;48110;47.532;19.078;2022-11-13T19:00:32;101711.47;;;5.00;100.00
62124;BME280;48110;47.532;19.078;2022-11-13T19:04:00;101705.94;;;4.91;100.00
62124;BME280;48110;47.532;19.078;2022-11-13T19:07:43;101697.44;;;4.87;100.00
62124;BME280;48110;47.532;19.078;2022-11-13T19:11:17;101702.78;;;5.12;100.00
62124;BME280;48110;47.532;19.078;2022-11-13T19:14:41;101699.97;;;5.28;100.00
62124;BME280;48110;47.532;19.078;2022-11-13T19:18:05;101695.53;;;5.16;100.00
62124;BME280;48110;47.532;19.078;2022-11-13T19:21:28;101702.47;;;5.17;100.00
62124;BME280;48110;47.532;19.078;2022-11-13T19:24:51;101694.53;;;5.04;100.00